Time;durP1;ratioP1;P1;durP2;ratioP2;P2;SDS_P1;SDS_P2;PMS_P1;PMS_P2;Temp;Humidity;BMP_temperature;BMP_pressure;BME280_temperature;BME280_humidity;BME280_pressure;Samples;Min_cycle;Max_cycle;Signal;HPM_P1;HPM_P2
2021/07/25 00:02:21;;;;;;;7.25;4.03;;;;;;;22.43;100.00;95779.94;5005594;28;20112;-54
2021/07/25 00:04:50;;;;;;;8.93;4.20;;;;;;;22.30;100.00;95777.53;5006766;28;20520;-57
2021/07/25 00:07:18;;;;;;;7.85;4.70;;;;;;;22.50;100.00;95769.06;5005130;28;20073;-55
2021/07/25 00:09:46;;;;;;;8.48;5.00;;;;;;;22.01;100.00;95771.19;5006066;28;20069;-56
2021/07/25 00:12:15;;;;;;;11.98;5.45;;;;;;;21.77;100.00;95779.22;5003335;28;20066;-55
2021/07/25 00:14:43;;;;;;;10.18;5.90;;;;;;;21.64;100.00;95773.25;5005939;28;20077;-57
2021/07/25 00:17:13;;;;;;;9.68;6.18;;;;;;;21.69;100.00;95782.25;5005737;28;20081;-55
2021/07/25 00:19:42;;;;;;;9.57;5.68;;;;;;;21.48;100.00;95764.84;5006285;28;20085;-56
2021/07/25 00:22:11;;;;;;;8.75;5.30;;;;;;;21.72;100.00;95763.03;5003476;28;20508;-53
2021/07/25 00:24:39;;;;;;;9.15;5.68;;;;;;;21.80;100.00;95762.66;5006755;28;20065;-52
2021/07/25 00:27:09;;;;;;;10.55;6.38;;;;;;;21.80;100.00;95754.63;5004804;28;20061;-51
2021/07/25 00:29:37;;;;;;;9.75;6.20;;;;;;;21.78;100.00;95750.53;5004480;28;20542;-55
2021/07/25 00:32:08;;;;;;;10.93;6.20;;;;;;;21.63;100.00;95750.97;5002691;28;20084;-52
2021/07/25 00:34:38;;;;;;;12.68;5.70;;;;;;;21.94;100.00;95763.25;5008491;28;20089;-57
2021/07/25 00:37:06;;;;;;;10.75;6.13;;;;;;;22.18;100.00;95758.72;5005588;28;20061;-55
2021/07/25 00:39:34;;;;;;;12.65;6.43;;;;;;;22.19;100.00;95741.56;5005478;28;20571;-54
2021/07/25 00:42:04;;;;;;;14.00;6.70;;;;;;;22.52;100.00;95751.69;5004808;28;20077;-53
2021/07/25 00:44:32;;;;;;;22.27;6.75;;;;;;;22.75;100.00;95761.56;5006104;28;20108;-52
2021/07/25 00:47:02;;;;;;;8.52;5.93;;;;;;;21.89;100.00;95760.47;5002264;28;20089;-55
2021/07/25 00:49:30;;;;;;;12.48;6.68;;;;;;;22.24;100.00;95762.34;5003536;28;20475;-55
2021/07/25 00:52:00;;;;;;;17.05;6.25;;;;;;;22.11;100.00;95757.19;5005134;28;20065;-53
2021/07/25 00:54:28;;;;;;;13.77;6.32;;;;;;;22.37;100.00;95747.88;5003891;28;20073;-54
2021/07/25 00:56:57;;;;;;;13.50;6.85;;;;;;;22.71;100.00;95754.19;5004257;28;20074;-55
2021/07/25 00:59:25;;;;;;;12.98;6.65;;;;;;;22.33;100.00;95749.38;5004959;28;20163;-51
2021/07/25 01:01:53;;;;;;;18.65;7.30;;;;;;;21.76;100.00;95760.69;5008091;28;20089;-57
2021/07/25 01:04:37;;;;;;;12.77;7.13;;;;;;;21.85;100.00;95763.84;5001877;28;20100;-55
2021/07/25 01:07:15;;;;;;;11.40;6.78;;;;;;;21.25;100.00;95762.06;5003681;28;20078;-56
2021/07/25 01:09:48;;;;;;;13.00;7.18;;;;;;;21.90;100.00;95729.88;5005391;28;20480;-55
2021/07/25 01:12:19;;;;;;;10.43;6.68;;;;;;;22.23;100.00;95723.13;5006150;28;20520;-52
2021/07/25 01:14:48;;;;;;;11.98;7.13;;;;;;;22.61;100.00;95727.09;5005908;28;20062;-50
2021/07/25 01:17:34;;;;;;;9.27;6.85;;;;;;;22.14;100.00;95727.19;5008732;28;20096;-58
2021/07/25 01:20:05;;;;;;;16.83;7.07;;;;;;;22.12;100.00;95722.03;5008793;28;20080;-54
2021/07/25 01:22:41;;;;;;;13.85;6.60;;;;;;;21.77;100.00;95716.69;5010035;28;20100;-56
2021/07/25 01:25:11;;;;;;;15.35;7.10;;;;;;;22.19;100.00;95706.63;5006766;28;20692;-55
2021/07/25 01:27:46;;;;;;;12.32;6.75;;;;;;;22.46;100.00;95693.50;5007568;28;20057;-54
2021/07/25 01:30:17;;;;;;;11.90;6.63;;;;;;;22.57;100.00;95691.84;5008776;28;20065;-52
2021/07/25 01:32:46;;;;;;;11.57;7.03;;;;;;;22.49;100.00;95709.16;5006727;28;20053;-52
2021/07/25 01:35:16;;;;;;;11.57;7.50;;;;;;;22.61;100.00;95703.75;5007731;28;20073;-57
2021/07/25 01:37:45;;;;;;;14.20;7.20;;;;;;;23.23;100.00;95703.06;5010564;28;20547;-55
2021/07/25 01:40:15;;;;;;;13.82;7.18;;;;;;;23.25;100.00;95697.41;5008318;28;20058;-56
2021/07/25 01:42:44;;;;;;;9.38;6.45;;;;;;;23.75;100.00;95702.03;5007202;28;20068;-53
2021/07/25 01:45:13;;;;;;;13.32;6.65;;;;;;;22.72;100.00;95705.59;5004461;28;20073;-55
2021/07/25 01:47:41;;;;;;;13.10;7.28;;;;;;;23.17;100.00;95704.81;5009251;28;20473;-52
2021/07/25 01:50:11;;;;;;;11.82;6.72;;;;;;;22.91;100.00;95700.00;5006957;28;20141;-53
2021/07/25 01:52:41;;;;;;;16.60;7.10;;;;;;;22.37;100.00;95705.69;4994995;28;20088;-56
2021/07/25 01:55:10;;;;;;;14.70;7.30;;;;;;;22.85;100.00;95701.81;5004887;28;20058;-56
2021/07/25 01:57:38;;;;;;;11.25;6.63;;;;;;;23.21;100.00;95702.47;5008220;28;20092;-54
2021/07/25 02:00:08;;;;;;;11.18;6.63;;;;;;;23.28;100.00;95713.88;5003624;28;20062;-54
2021/07/25 02:02:37;;;;;;;20.00;6.20;;;;;;;23.43;100.00;95716.00;5008210;28;20077;-53
2021/07/25 02:05:06;;;;;;;18.67;6.88;;;;;;;23.17;100.00;95722.84;5004405;28;20481;-53
2021/07/25 02:07:34;;;;;;;20.50;6.53;;;;;;;23.35;100.00;95709.16;5010879;28;20085;-54
2021/07/25 02:10:05;;;;;;;20.77;7.30;;;;;;;23.15;100.00;95716.88;5007384;28;20058;-55
2021/07/25 02:12:33;;;;;;;20.65;6.85;;;;;;;22.62;100.00;95732.25;5006974;28;20069;-53
2021/07/25 02:15:03;;;;;;;15.77;6.65;;;;;;;22.63;100.00;95731.19;4991307;28;20037;-57
2021/07/25 02:17:31;;;;;;;16.45;6.75;;;;;;;22.61;100.00;95744.06;5007553;28;20085;-52
2021/07/25 02:19:59;;;;;;;21.15;7.38;;;;;;;22.45;100.00;95760.94;5008410;28;20082;-49
2021/07/25 02:22:27;;;;;;;20.52;7.43;;;;;;;22.18;100.00;95771.34;5008147;28;20132;-56
2021/07/25 02:24:56;;;;;;;21.33;7.10;;;;;;;23.23;100.00;95754.16;5007273;28;20077;-58
2021/07/25 02:27:25;;;;;;;12.07;7.53;;;;;;;23.27;100.00;95752.63;5005475;28;20540;-55
2021/07/25 02:29:54;;;;;;;15.17;7.50;;;;;;;23.15;100.00;95754.53;5006602;28;20066;-57
2021/07/25 02:32:22;;;;;;;16.45;7.60;;;;;;;22.79;100.00;95739.56;5005590;28;20484;-50
2021/07/25 02:34:51;;;;;;;13.75;7.43;;;;;;;23.36;100.00;95734.19;5010375;28;20073;-53
2021/07/25 02:37:20;;;;;;;18.05;7.35;;;;;;;22.98;100.00;95724.91;5005434;28;20069;-55
2021/07/25 02:39:48;;;;;;;15.23;7.82;;;;;;;22.78;100.00;95722.63;5007970;28;20062;-58
2021/07/25 02:42:16;;;;;;;16.58;7.63;;;;;;;23.20;100.00;95722.34;5007086;28;20100;-50
2021/07/25 02:44:47;;;;;;;18.73;7.10;;;;;;;22.65;100.00;95720.22;5006400;28;20101;-53
2021/07/25 02:47:15;;;;;;;18.77;7.38;;;;;;;22.73;100.00;95731.41;5006081;28;20034;-53
2021/07/25 02:49:44;;;;;;;25.55;8.50;;;;;;;22.81;100.00;95753.59;5009088;28;20088;-55
2021/07/25 02:52:12;;;;;;;28.02;8.27;;;;;;;22.32;100.00;95762.00;5032696;22;20092;-54
2021/07/25 02:54:40;;;;;;;21.67;7.75;;;;;;;22.47;100.00;95783.81;5045392;28;20079;-59
2021/07/25 02:57:09;;;;;;;17.92;7.82;;;;;;;21.62;100.00;95786.09;5045272;28;20069;-55
2021/07/25 02:59:37;;;;;;;12.15;7.15;;;;;;;22.22;100.00;95785.94;5043754;28;20475;-54
2021/07/25 03:02:07;;;;;;;14.40;7.80;;;;;;;22.55;100.00;95782.63;5045145;28;20076;-49
2021/07/25 03:04:36;;;;;;;14.10;7.75;;;;;;;22.69;100.00;95802.00;5047259;28;20085;-54
2021/07/25 03:07:05;;;;;;;17.83;7.60;;;;;;;22.57;100.00;95795.81;5042191;28;20071;-54
2021/07/25 03:09:33;;;;;;;9.80;7.15;;;;;;;23.15;100.00;95784.94;5047039;28;20079;-56
2021/07/25 03:12:01;;;;;;;15.50;8.20;;;;;;;23.06;100.00;95796.34;5044942;28;20072;-54
2021/07/25 03:14:30;;;;;;;14.63;6.97;;;;;;;22.48;100.00;95790.00;5041586;28;20076;-51
2021/07/25 03:16:58;;;;;;;15.43;8.02;;;;;;;22.56;100.00;95781.56;5048513;28;20065;-59
2021/07/25 03:19:28;;;;;;;18.80;7.75;;;;;;;22.38;100.00;95782.53;5042993;28;21520;-51
2021/07/25 03:21:56;;;;;;;11.68;7.85;;;;;;;21.88;100.00;95801.75;5044026;28;20064;-59
2021/07/25 03:24:25;;;;;;;19.08;7.90;;;;;;;22.13;100.00;95793.50;5043729;28;20068;-57
2021/07/25 03:26:53;;;;;;;19.08;8.63;;;;;;;22.72;100.00;95780.84;5044968;28;20061;-54
2021/07/25 03:29:21;;;;;;;17.85;8.27;;;;;;;22.26;100.00;95779.88;5043863;28;20071;-54
2021/07/25 03:31:50;;;;;;;18.27;8.07;;;;;;;22.26;100.00;95779.88;5046759;28;20076;-52
2021/07/25 03:34:18;;;;;;;21.58;8.82;;;;;;;21.96;100.00;95781.84;5043071;28;20076;-57
2021/07/25 03:36:48;;;;;;;15.25;8.15;;;;;;;22.78;100.00;95773.72;5041956;28;20073;-50
2021/07/25 03:39:20;;;;;;;17.20;7.88;;;;;;;23.08;100.00;95765.44;5044330;28;20064;-54
2021/07/25 03:41:48;;;;;;;14.80;8.23;;;;;;;23.31;100.00;95771.78;5044453;28;20072;-50
2021/07/25 03:44:17;;;;;;;15.88;8.35;;;;;;;23.05;100.00;95784.72;5044679;28;20464;-56
2021/07/25 03:46:45;;;;;;;16.35;8.40;;;;;;;23.48;100.00;95778.00;5046267;28;20076;-55
2021/07/25 03:49:14;;;;;;;18.25;9.02;;;;;;;22.94;100.00;95770.28;5043905;28;20076;-53
2021/07/25 03:51:42;;;;;;;16.50;8.75;;;;;;;24.05;100.00;95775.19;5043705;28;20072;-52
2021/07/25 03:54:12;;;;;;;13.25;8.35;;;;;;;24.22;100.00;95761.69;5042004;28;20097;-54
2021/07/25 03:56:40;;;;;;;16.52;7.90;;;;;;;23.76;100.00;95747.53;5044177;28;20064;-54
2021/07/25 03:59:09;;;;;;;14.23;8.30;;;;;;;23.42;100.00;95741.28;5042246;28;20076;-52
2021/07/25 04:01:37;;;;;;;14.68;8.40;;;;;;;23.54;100.00;95757.38;5048017;28;20468;-57
2021/07/25 04:04:06;;;;;;;15.40;7.93;;;;;;;23.53;100.00;95761.13;5044380;28;20080;-52
2021/07/25 04:06:34;;;;;;;22.45;8.40;;;;;;;23.50;100.00;95769.66;5043065;28;20467;-59
2021/07/25 04:09:03;;;;;;;14.68;8.07;;;;;;;23.38;100.00;95778.63;5040216;28;20072;-57
2021/07/25 04:11:32;;;;;;;14.35;9.43;;;;;;;22.91;100.00;95786.84;5045792;28;20072;-55
2021/07/25 04:14:01;;;;;;;13.07;8.45;;;;;;;23.35;100.00;95779.13;5044328;28;20095;-56
2021/07/25 04:16:29;;;;;;;13.25;8.25;;;;;;;23.03;100.00;95778.81;5045362;28;20081;-55
2021/07/25 04:18:58;;;;;;;11.48;8.20;;;;;;;22.68;100.00;95782.38;5046176;28;20081;-54
2021/07/25 04:21:26;;;;;;;12.90;7.93;;;;;;;22.10;100.00;95785.09;5041369;28;20068;-55
2021/07/25 04:23:54;;;;;;;15.15;7.82;;;;;;;22.41;100.00;95783.94;5042369;28;20543;-55
2021/07/25 04:26:23;;;;;;;13.00;8.57;;;;;;;22.07;100.00;95790.94;5043887;28;20626;-55
2021/07/25 04:28:54;;;;;;;15.68;8.55;;;;;;;22.49;100.00;95800.50;5048966;28;20072;-52
2021/07/25 04:31:23;;;;;;;15.73;7.97;;;;;;;22.84;100.00;95799.63;5042239;28;20061;-57
2021/07/25 04:33:53;;;;;;;13.10;8.27;;;;;;;22.82;100.00;95807.13;5044214;28;20057;-54
2021/07/25 04:36:26;;;;;;;17.50;8.18;;;;;;;22.92;100.00;95815.44;5044507;28;20072;-58
2021/07/25 04:38:55;;;;;;;21.33;8.38;;;;;;;22.67;100.00;95821.03;5045985;28;20465;-57
2021/07/25 04:41:25;;;;;;;17.30;7.70;;;;;;;22.91;100.00;95815.63;5043192;28;20499;-55
2021/07/25 04:44:02;;;;;;;20.50;7.63;;;;;;;22.92;100.00;95814.59;5046573;28;20084;-55
2021/07/25 04:46:31;;;;;;;9.75;6.90;;;;;;;22.11;100.00;95811.72;5025971;28;20040;-54
2021/07/25 04:49:03;;;;;;;14.10;7.47;;;;;;;21.85;100.00;95818.34;5041016;28;20052;-57
2021/07/25 04:51:32;;;;;;;15.13;6.88;;;;;;;22.70;100.00;95807.13;5041388;28;20041;-57
2021/07/25 04:54:06;;;;;;;13.85;6.57;;;;;;;22.29;100.00;95821.56;5044209;28;20468;-59
2021/07/25 04:56:41;;;;;;;11.15;6.82;;;;;;;23.05;100.00;95835.84;5044460;28;20068;-53
2021/07/25 04:59:19;;;;;;;13.25;6.43;;;;;;;23.44;100.00;95838.75;5042119;28;20101;-55
2021/07/25 05:01:50;;;;;;;10.80;6.18;;;;;;;23.14;100.00;95826.34;5041861;28;20088;-56
2021/07/25 05:04:22;;;;;;;11.07;6.53;;;;;;;23.35;100.00;95837.50;5044170;28;20060;-58
2021/07/25 05:06:50;;;;;;;12.20;6.90;;;;;;;22.74;100.00;95858.53;5043827;28;20060;-57
2021/07/25 05:09:19;;;;;;;10.38;6.18;;;;;;;23.24;100.00;95858.00;5042877;28;20073;-59
2021/07/25 05:11:52;;;;;;;12.25;6.60;;;;;;;23.86;100.00;95833.06;5044089;28;20069;-56
2021/07/25 05:14:27;;;;;;;11.95;6.97;;;;;;;23.37;100.00;95811.19;5044557;28;20077;-55
2021/07/25 05:17:03;;;;;;;15.55;7.03;;;;;;;23.58;100.00;95806.97;5046334;28;20084;-53
2021/07/25 05:19:40;;;;;;;;;;;;;;;23.65;100.00;95818.41;5042359;28;20461;-52
2021/07/25 05:22:16;;;;;;;13.57;6.63;;;;;;;23.86;100.00;95816.91;5042683;28;19971;-55
2021/07/25 05:24:46;;;;;;;14.77;6.63;;;;;;;23.11;100.00;95791.84;5044357;28;20080;-57
2021/07/25 05:27:20;;;;;;;12.70;6.85;;;;;;;23.12;100.00;95785.41;5043371;28;20064;-55
2021/07/25 05:29:52;;;;;;;14.82;6.97;;;;;;;23.17;100.00;95806.22;5042008;28;20052;-57
2021/07/25 05:32:20;;;;;;;13.25;7.35;;;;;;;23.12;100.00;95815.00;5039381;28;20160;-61
2021/07/25 05:34:49;;;;;;;13.68;7.80;;;;;;;22.31;100.00;95818.66;5045987;28;20665;-61
2021/07/25 05:37:17;;;;;;;19.23;7.95;;;;;;;22.97;100.00;95836.22;5042915;28;20072;-60
2021/07/25 05:39:46;;;;;;;15.10;7.97;;;;;;;22.92;100.00;95838.78;5041778;28;20083;-59
2021/07/25 05:42:14;;;;;;;16.33;7.75;;;;;;;23.16;100.00;95842.25;5043974;28;20072;-59
2021/07/25 05:44:43;;;;;;;17.98;8.35;;;;;;;23.54;100.00;95805.84;5042725;28;20531;-60
2021/07/25 05:47:12;;;;;;;11.65;7.63;;;;;;;22.94;100.00;95789.09;5043004;28;20084;-57
2021/07/25 05:49:41;;;;;;;12.57;8.00;;;;;;;22.62;100.00;95793.25;5044281;28;20103;-58
2021/07/25 05:52:09;;;;;;;15.18;8.20;;;;;;;22.19;100.00;95816.75;5041215;28;20068;-61
2021/07/25 05:54:37;;;;;;;13.85;8.35;;;;;;;23.36;100.00;95818.41;5040609;28;20064;-57
2021/07/25 05:57:06;;;;;;;13.85;8.48;;;;;;;23.01;100.00;95821.22;5041586;28;20535;-60
2021/07/25 05:59:34;;;;;;;14.02;8.50;;;;;;;23.75;100.00;95834.75;5047170;28;20593;-59
2021/07/25 06:02:04;;;;;;;15.20;8.25;;;;;;;23.75;100.00;95832.06;5046496;28;20077;-62
2021/07/25 06:04:34;;;;;;;14.23;8.25;;;;;;;23.12;100.00;95817.69;5049330;28;20068;-59
2021/07/25 06:07:02;;;;;;;11.95;6.85;;;;;;;22.72;100.00;95823.03;5046898;28;20456;-60
2021/07/25 06:09:31;;;;;;;15.00;7.50;;;;;;;23.65;100.00;95850.72;5044883;28;20069;-58
2021/07/25 06:11:59;;;;;;;16.52;7.35;;;;;;;23.31;100.00;95863.25;5043843;28;20072;-59
2021/07/25 06:14:27;;;;;;;12.38;7.05;;;;;;;23.98;100.00;95843.75;5046973;28;20098;-60
2021/07/25 06:16:56;;;;;;;10.73;7.32;;;;;;;23.92;100.00;95835.59;5050852;28;20068;-59
2021/07/25 06:19:24;;;;;;;14.02;7.15;;;;;;;24.48;100.00;95841.06;5046519;28;20510;-58
2021/07/25 06:21:54;;;;;;;12.82;7.22;;;;;;;23.33;100.00;95853.06;5046049;28;20065;-55
2021/07/25 06:24:22;;;;;;;12.23;6.75;;;;;;;23.68;100.00;95844.88;5046600;28;20072;-53
2021/07/25 06:26:52;;;;;;;13.75;7.75;;;;;;;24.48;100.00;95838.38;5045817;28;20076;-60
2021/07/25 06:29:20;;;;;;;15.85;7.07;;;;;;;25.03;100.00;95842.88;5046964;28;20095;-60
2021/07/25 06:31:55;;;;;;;12.18;7.18;;;;;;;24.44;100.00;95839.13;5051675;28;20420;-60
2021/07/25 06:34:25;;;;;;;15.25;7.20;;;;;;;23.99;100.00;95845.41;4953473;28;20053;-54
2021/07/25 06:36:54;;;;;;;11.50;6.75;;;;;;;25.12;100.00;95842.47;5046034;28;20424;-57
2021/07/25 06:39:23;;;;;;;13.52;6.38;;;;;;;24.48;100.00;95832.16;5045793;28;20080;-56
2021/07/25 06:41:51;;;;;;;11.38;6.60;;;;;;;24.23;100.00;95817.22;5047108;28;20091;-57
2021/07/25 06:44:19;;;;;;;12.13;6.72;;;;;;;23.84;100.00;95811.75;5045035;28;20085;-55
2021/07/25 06:46:51;;;;;;;11.82;6.28;;;;;;;24.16;100.00;95809.31;5045481;28;20088;-56
2021/07/25 06:49:19;;;;;;;11.35;6.22;;;;;;;25.09;100.00;95809.50;5045657;28;20072;-59
2021/07/25 06:51:48;;;;;;;7.72;5.32;;;;;;;25.30;100.00;95832.16;5045469;28;20526;-58
2021/07/25 06:54:18;;;;;;;9.73;6.15;;;;;;;25.52;100.00;95836.72;5044653;28;20065;-60
2021/07/25 06:56:46;;;;;;;12.43;5.65;;;;;;;25.22;100.00;95839.88;5044875;28;20063;-57
2021/07/25 06:59:14;;;;;;;11.60;6.07;;;;;;;26.04;100.00;95825.31;5046898;28;20073;-58
2021/07/25 07:01:43;;;;;;;7.93;5.15;;;;;;;25.18;100.00;95826.06;5047477;28;20072;-59
2021/07/25 07:04:11;;;;;;;10.45;6.05;;;;;;;24.67;100.00;95832.69;5045152;28;20541;-54
2021/07/25 07:06:40;;;;;;;9.93;5.90;;;;;;;24.81;100.00;95818.59;5044638;28;20530;-58
2021/07/25 07:09:09;;;;;;;10.93;5.63;;;;;;;24.10;100.00;95817.56;5047932;28;20098;-60
2021/07/25 07:11:39;;;;;;;11.18;5.80;;;;;;;24.58;100.00;95811.56;5040250;28;20532;-56
2021/07/25 07:14:08;;;;;;;9.32;5.75;;;;;;;24.29;100.00;95800.03;5044020;28;20076;-57
2021/07/25 07:16:36;;;;;;;12.77;5.97;;;;;;;25.42;100.00;95796.09;5045595;28;20633;-55
2021/07/25 07:19:05;;;;;;;10.40;5.75;;;;;;;26.42;100.00;95797.22;5045941;28;20056;-59
2021/07/25 07:21:33;;;;;;;11.35;5.32;;;;;;;25.94;100.00;95799.03;5044828;28;20064;-56
2021/07/25 07:24:02;;;;;;;10.32;5.60;;;;;;;25.47;100.00;95813.19;5043329;28;20064;-57
2021/07/25 07:26:30;;;;;;;7.40;4.95;;;;;;;27.03;100.00;95804.88;5044964;28;20076;-55
2021/07/25 07:29:00;;;;;;;10.68;5.07;;;;;;;25.90;100.00;95806.03;5048176;28;20140;-59
2021/07/25 07:31:28;;;;;;;10.73;5.32;;;;;;;25.87;100.00;95803.84;5043734;28;21715;-56
2021/07/25 07:33:57;;;;;;;9.93;4.82;;;;;;;26.10;100.00;95796.47;5044747;28;20100;-56
2021/07/25 07:36:25;;;;;;;8.27;5.07;;;;;;;25.40;100.00;95807.19;5040433;28;20057;-59
2021/07/25 07:38:53;;;;;;;11.60;5.15;;;;;;;27.34;100.00;95807.69;5047385;28;20060;-57
2021/07/25 07:41:22;;;;;;;8.15;5.05;;;;;;;25.82;100.00;95805.72;5029714;28;20452;-57
2021/07/25 07:43:50;;;;;;;8.75;5.00;;;;;;;26.38;100.00;95796.13;5045953;28;20080;-59
2021/07/25 07:46:20;;;;;;;9.50;4.88;;;;;;;26.51;100.00;95789.47;5047080;28;20068;-56
2021/07/25 07:48:48;;;;;;;10.27;5.28;;;;;;;25.66;100.00;95796.59;5043712;28;20125;-56
2021/07/25 07:51:16;;;;;;;10.25;4.70;;;;;;;26.25;100.00;95797.38;5046670;28;20069;-59
2021/07/25 07:53:45;;;;;;;11.68;5.20;;;;;;;27.04;100.00;95808.38;5045801;28;20060;-54
2021/07/25 07:56:13;;;;;;;8.02;4.93;;;;;;;25.96;100.00;95810.41;5043029;28;20087;-52
2021/07/25 07:58:42;;;;;;;10.57;4.60;;;;;;;26.99;100.00;95803.78;5046759;28;20622;-56
2021/07/25 08:01:10;;;;;;;7.55;4.60;;;;;;;25.98;100.00;95810.97;5044919;28;20041;-55
2021/07/25 08:03:40;;;;;;;8.23;4.78;;;;;;;26.56;100.00;95815.72;5045771;28;20080;-57
2021/07/25 08:06:09;;;;;;;9.80;4.93;;;;;;;27.46;100.00;95821.81;5042015;28;20065;-53
2021/07/25 08:08:37;;;;;;;6.90;4.40;;;;;;;27.00;100.00;95818.91;5044320;28;20057;-58
2021/07/25 08:11:06;;;;;;;8.38;4.45;;;;;;;27.02;100.00;95816.78;5046360;28;20087;-58
2021/07/25 08:13:34;;;;;;;7.65;4.55;;;;;;;27.37;100.00;95826.13;5047294;28;20084;-55
2021/07/25 08:16:03;;;;;;;7.38;4.65;;;;;;;26.78;100.00;95829.91;5044102;28;20060;-51
2021/07/25 08:18:32;;;;;;;8.73;4.90;;;;;;;29.91;94.18;95843.09;5046642;28;20086;-54
2021/07/25 08:21:02;;;;;;;7.90;4.55;;;;;;;30.22;84.55;95860.00;5031771;28;20087;-57
2021/07/25 08:23:30;;;;;;;11.13;4.75;;;;;;;29.70;81.93;95868.78;5043951;28;20076;-54
2021/07/25 08:25:59;;;;;;;6.78;4.43;;;;;;;30.45;77.02;95868.50;5045892;28;20082;-55
2021/07/25 08:28:27;;;;;;;6.80;4.20;;;;;;;31.15;68.23;95866.19;5046753;28;20513;-56
2021/07/25 08:30:56;;;;;;;8.95;4.28;;;;;;;29.99;75.06;95888.69;5043370;28;20060;-53
2021/07/25 08:33:24;;;;;;;6.68;4.10;;;;;;;29.36;78.98;95896.63;5045526;28;20079;-54
2021/07/25 08:35:52;;;;;;;5.40;3.72;;;;;;;29.49;83.40;95897.91;5044649;28;20072;-52
2021/07/25 08:38:23;;;;;;;8.05;4.10;;;;;;;29.26;91.76;95899.38;5044392;28;20080;-51
2021/07/25 08:41:07;;;;;;;7.30;4.13;;;;;;;29.95;79.02;95895.78;5045884;28;20083;-52
2021/07/25 08:43:39;;;;;;;6.88;4.10;;;;;;;29.43;82.50;95888.97;5043883;28;20492;-56
2021/07/25 08:46:14;;;;;;;6.38;4.03;;;;;;;29.92;78.13;95895.53;5045266;28;20079;-55
2021/07/25 08:48:47;;;;;;;8.10;3.90;;;;;;;30.47;79.46;95874.50;5043840;28;20472;-52
2021/07/25 08:51:18;;;;;;;7.18;4.18;;;;;;;30.69;77.37;95872.09;5041314;28;20065;-51
2021/07/25 08:54:00;;;;;;;6.47;4.07;;;;;;;30.06;78.75;95871.25;5044293;28;20064;-55
2021/07/25 08:56:31;;;;;;;7.50;4.18;;;;;;;30.76;70.48;95882.69;5045732;28;20083;-57
2021/07/25 08:59:01;;;;;;;7.97;4.10;;;;;;;30.59;75.50;95871.38;5046893;28;20558;-52
2021/07/25 09:01:35;;;;;;;5.95;3.92;;;;;;;31.43;65.67;95869.97;5042447;28;20140;-53
2021/07/25 09:04:05;;;;;;;4.88;3.90;;;;;;;31.01;74.37;95856.31;5047310;28;20068;-55
2021/07/25 09:06:41;;;;;;;7.80;4.63;;;;;;;31.21;65.56;95854.16;5042215;28;20073;-54
2021/07/25 09:09:11;;;;;;;6.28;4.20;;;;;;;32.42;57.16;95843.75;5043833;28;20088;-56
2021/07/25 09:11:39;;;;;;;;;;;;;;;32.50;58.88;95839.53;5044840;28;20499;-57
2021/07/25 09:14:08;;;;;;;6.75;4.20;;;;;;;33.16;54.03;95845.69;5045346;28;19971;-59
2021/07/25 09:16:37;;;;;;;7.95;4.65;;;;;;;32.57;55.84;95850.88;5046246;28;20103;-55
2021/07/25 09:19:05;;;;;;;7.38;4.78;;;;;;;32.32;57.06;95844.72;5038854;28;20111;-59
2021/07/25 09:21:38;;;;;;;7.63;4.85;;;;;;;32.63;57.70;95849.66;5044570;28;20528;-54
2021/07/25 09:24:23;;;;;;;8.35;3.97;;;;;;;33.18;54.90;95844.28;5042948;28;20147;-60
2021/07/25 09:26:54;;;;;;;7.13;4.25;;;;;;;31.63;62.09;95841.66;5042531;28;20069;-53
2021/07/25 09:29:27;;;;;;;4.95;4.18;;;;;;;31.34;60.75;95847.19;5040847;28;20065;-57
2021/07/25 09:32:12;;;;;;;8.63;4.22;;;;;;;32.17;54.77;95850.41;5047738;28;20072;-52
2021/07/25 09:34:41;;;;;;;6.50;4.15;;;;;;;31.47;58.36;95845.69;5047448;28;20052;-53
2021/07/25 09:37:12;;;;;;;8.82;4.20;;;;;;;32.13;55.16;95831.09;5046604;28;20061;-55
2021/07/25 09:39:43;;;;;;;7.75;4.03;;;;;;;31.32;57.37;95832.25;5046817;28;20087;-54
2021/07/25 09:42:12;;;;;;;5.88;3.75;;;;;;;31.54;57.79;95829.75;5046817;28;20079;-50
2021/07/25 09:44:51;;;;;;;6.78;4.22;;;;;;;31.16;66.84;95816.06;5046446;28;20075;-52
2021/07/25 09:47:28;;;;;;;7.03;4.20;;;;;;;32.05;57.07;95814.59;5046829;28;20118;-57
2021/07/25 09:49:57;;;;;;;7.05;4.18;;;;;;;31.06;62.72;95809.94;5050657;28;20076;-56
2021/07/25 09:52:30;;;;;;;8.60;4.07;;;;;;;31.38;64.03;95810.09;5046988;28;20056;-51
2021/07/25 09:55:00;;;;;;;5.72;3.90;;;;;;;31.03;68.27;95813.22;5045821;28;20495;-53
2021/07/25 09:57:30;;;;;;;7.30;4.40;;;;;;;30.89;65.72;95818.56;5046144;28;20069;-58
2021/07/25 10:00:10;;;;;;;8.15;4.65;;;;;;;31.68;58.50;95814.28;5048332;28;20064;-54
2021/07/25 10:02:41;;;;;;;5.70;4.28;;;;;;;31.89;57.52;95817.56;5047172;28;20459;-52
2021/07/25 10:05:12;;;;;;;7.63;4.38;;;;;;;30.62;65.68;95821.81;5045631;28;20080;-54
2021/07/25 10:07:41;;;;;;;6.70;4.30;;;;;;;30.65;70.48;95805.72;5050934;28;20080;-57
2021/07/25 10:10:13;;;;;;;7.97;4.87;;;;;;;30.11;74.60;95805.94;5046330;28;20076;-52
2021/07/25 10:12:43;;;;;;;8.63;5.85;;;;;;;30.40;72.31;95798.63;5043688;28;20510;-59
2021/07/25 10:15:12;;;;;;;;;;;;;;;31.63;59.94;95800.75;5047025;28;20531;-54
2021/07/25 10:17:42;;;;;;;10.82;4.63;;;;;;;30.19;68.31;95781.69;5041463;28;19949;-57
2021/07/25 10:20:12;;;;;;;7.88;4.22;;;;;;;31.05;63.42;95770.19;5043386;28;20092;-57
2021/07/25 10:22:40;;;;;;;8.00;4.85;;;;;;;30.64;70.37;95771.44;5045834;28;20071;-52
2021/07/25 10:25:13;;;;;;;6.72;4.75;;;;;;;30.13;69.28;95760.25;5046975;28;20116;-56
2021/07/25 10:27:45;;;;;;;7.40;4.70;;;;;;;30.22;72.69;95753.13;5046336;28;20080;-58
2021/07/25 10:30:15;;;;;;;6.78;3.72;;;;;;;30.79;68.64;95750.63;5044676;28;20068;-53
2021/07/25 10:32:43;;;;;;;5.07;4.18;;;;;;;30.35;71.74;95749.72;5045535;28;20075;-55
2021/07/25 10:35:13;;;;;;;8.38;3.92;;;;;;;30.56;71.52;95749.47;5044646;28;20085;-58
2021/07/25 10:37:44;;;;;;;6.32;3.78;;;;;;;29.36;76.38;95751.84;5045403;28;20089;-53
2021/07/25 10:40:15;;;;;;;6.55;3.70;;;;;;;29.88;74.67;95748.50;5046235;28;20052;-55
2021/07/25 10:42:48;;;;;;;6.55;3.95;;;;;;;29.60;77.39;95765.56;5045934;28;20069;-58
2021/07/25 10:45:17;;;;;;;8.18;4.53;;;;;;;29.18;83.66;95759.56;5046445;28;20091;-55
2021/07/25 10:47:47;;;;;;;7.10;4.10;;;;;;;29.91;75.20;95745.22;5044673;28;20076;-54
2021/07/25 10:50:19;;;;;;;;;;;;;;;30.43;68.86;95749.09;5046674;28;20458;-57
2021/07/25 10:53:05;;;;;;;6.70;4.05;;;;;;;29.39;80.72;95743.94;5048858;28;19983;-55
2021/07/25 10:55:48;;;;;;;5.80;3.75;;;;;;;29.73;77.63;95737.72;5044094;28;21551;-56
2021/07/25 10:58:18;;;;;;;3.60;3.25;;;;;;;29.08;80.72;95741.41;5044292;28;20061;-54
2021/07/25 11:00:49;;;;;;;5.80;3.80;;;;;;;30.83;73.04;95725.25;5044800;28;20069;-54
2021/07/25 11:03:43;;;;;;;5.88;3.50;;;;;;;30.90;66.77;95731.16;5029392;28;20076;-56
2021/07/25 11:06:17;;;;;;;4.68;3.50;;;;;;;31.16;64.85;95730.81;5038504;28;20064;-52
2021/07/25 11:08:47;;;;;;;4.65;3.47;;;;;;;31.60;60.27;95730.47;5045321;28;20755;-53
2021/07/25 11:11:54;;;;;;;6.68;3.60;;;;;;;31.58;63.16;95726.41;5042466;28;20084;-56
2021/07/25 11:15:06;;;;;;;5.88;3.53;;;;;;;31.09;66.56;95744.00;5041446;28;20080;-54
2021/07/25 11:17:52;;;;;;;5.80;3.63;;;;;;;32.09;58.55;95737.31;5043655;28;20080;-52
2021/07/25 11:20:41;;;;;;;4.43;3.30;;;;;;;32.52;54.81;95739.84;5044648;28;20076;-56
2021/07/25 11:23:21;;;;;;;5.03;3.50;;;;;;;33.07;53.25;95745.31;5043862;28;20085;-51
2021/07/25 11:25:51;;;;;;;6.35;3.20;;;;;;;31.99;55.85;95742.94;5047352;28;20081;-55
2021/07/25 11:28:41;;;;;;;7.55;3.85;;;;;;;31.90;55.84;95750.19;5044429;28;20072;-58
2021/07/25 11:31:10;;;;;;;6.35;3.67;;;;;;;31.59;57.83;95756.13;5045743;28;20084;-56
2021/07/25 11:33:48;;;;;;;4.72;3.38;;;;;;;31.57;53.65;95761.03;5041157;28;20080;-55
2021/07/25 11:36:18;;;;;;;6.57;3.63;;;;;;;31.70;51.55;95764.13;5045106;28;20072;-50
2021/07/25 11:38:49;;;;;;;;;;;;;;;32.17;53.17;95752.19;5044915;28;20068;-56
2021/07/25 11:41:23;;;;;;;4.75;3.40;;;;;;;33.44;47.89;95748.88;5045071;28;19947;-54